首页
METAR-TAF:

METAR-TAF

机场 :

哈瓦苏湖城, 亞利桑那州, 美国

纬度: 34-34-16N, 经度: 114-21-30W, 海拔: 239米

当前天气观测

该预报发布于23分钟前的13:55 UTC
静风
温度 12°C
湿度 26%
气压 1016 hPa
能見度: 16.1公里
天空无云

METAR: KHII 131355Z AUTO 00000KT 10SM CLR 12/M07 A3000 RMK AO2

时间: 07:18 (14:18 UTC)


TAF: 丢失

超过4000个机场的气象观测和天气预报(METAR&TAF报告)。

可查询的气象台以黄色和红色小点在地图上表示。

将鼠标移到小点上方,可查看气象台名称。

然后点击查看天气观测和预报。

如需切换地图:点击带黑十字的绿色按钮放大地图;点击带横线的绿色按钮缩小地图;或者点击绿色箭头查看邻近地区的地图。


METAR-TAF: